Varmdo — SMXZ — position and weather

sailwx.info

Track history (hours):
 
Tides and Currents Weather Stations Pressure Air Temp Water Temp Dewpoint Dewpoint Depression Visibility Wind Speed Wind Dir Waves Ship Positions

Varmdo

Last reported at 2016-Aug-24 18:31 UTC. Time now 2016-Aug-24 19:43 UTC.
Position N 59°20' E 018°05'.

Length 38 m; draft 2.5 m.

Type: Passenger vessel. MMSI: 265520390.

Date/timePositionNaut miles runAvg speedWind from/ knotsBaromVisibWave heightAir tempDewpointWater temp
2016-Aug-24 18:31N 59°20' E 018°05'0 0.0
2016-Aug-24 17:31N 59°20' E 018°05'0 0.0
2016-Aug-24 16:31N 59°20' E 018°05'0 0.0
2016-Aug-24 15:31N 59°20' E 018°05'0 0.0
2016-Aug-24 14:31N 59°20' E 018°05'0 0.0
2016-Aug-24 13:28N 59°20' E 018°05'0 0.0
2016-Aug-24 12:31N 59°20' E 018°05'0 0.0
2016-Aug-24 11:28N 59°20' E 018°05'0 0.0
2016-Aug-24 10:31N 59°20' E 018°05'0 0.0
2016-Aug-24 09:31N 59°20' E 018°05'0 0.0
2016-Aug-24 08:31N 59°20' E 018°05'0 0.0
2016-Aug-24 07:31N 59°20' E 018°05'0 0.0
2016-Aug-24 06:31N 59°20' E 018°05'0 0.0
2016-Aug-24 04:31N 59°20' E 018°05'0 0.0
2016-Aug-24 03:31N 59°20' E 018°05'0 0.0
2016-Aug-24 02:31N 59°20' E 018°05'0 0.0
2016-Aug-24 01:31N 59°20' E 018°05'0 0.0
2016-Aug-24 00:31N 59°20' E 018°05'0 0.0
2016-Aug-23 23:28N 59°20' E 018°05'0 0.0
2016-Aug-23 22:31N 59°20' E 018°05'0 0.0
2016-Aug-23 21:31N 59°20' E 018°05'0 0.0
2016-Aug-23 20:31N 59°20' E 018°05'0 0.0
2016-Aug-23 19:31N 59°20' E 018°05'0 0.0
2016-Aug-23 18:28N 59°20' E 018°05'0 0.0
2016-Aug-23 17:31N 59°20' E 018°05'0 0.0
2016-Aug-23 16:28N 59°20' E 018°05'0 0.0
2016-Aug-23 15:31N 59°20' E 018°05'0 0.0
2016-Aug-23 14:28N 59°20' E 018°05'0 0.0
2016-Aug-23 13:31N 59°20' E 018°05'0 0.0
2016-Aug-23 12:28N 59°20' E 018°05'0 0.0
2016-Aug-23 11:31N 59°20' E 018°05'0 0.0
2016-Aug-23 10:31N 59°20' E 018°05'0 0.0
2016-Aug-23 09:31N 59°20' E 018°05'0 0.2
2016-Aug-23 08:33N 59°20' E 018°05'5 5.3
2016-Aug-23 07:34N 59°21' E 018°14'22 6.9
2016-Aug-23 04:23N 59°27' E 018°56'6 0.3
2016-Aug-22 09:18N 59°23' E 018°46'13 0.9
2016-Aug-21 18:33N 59°23' E 018°21'9 8.9
2016-Aug-21 17:33N 59°20' E 018°05'10 9.0
2016-Aug-21 16:29N 59°24' E 018°21'0 0.0
2016-Aug-21 10:29N 59°24' E 018°21'1010.4
2016-Aug-21 09:34N 59°19' E 018°05'0 0.4
2016-Aug-21 08:32N 59°20' E 018°05'0 0.0
2016-Aug-21 07:32N 59°20' E 018°05'0 0.0
2016-Aug-21 06:26N 59°20' E 018°05'0 0.0
2016-Aug-21 05:32N 59°20' E 018°05'0 0.0
2016-Aug-21 04:32N 59°20' E 018°05'0 0.0
2016-Aug-21 03:32N 59°20' E 018°05'0 0.0
2016-Aug-21 02:32N 59°20' E 018°05'0 0.0
2016-Aug-21 01:32N 59°20' E 018°05'0 0.0
2016-Aug-21 00:32N 59°20' E 018°05'0 0.0
2016-Aug-20 23:32N 59°20' E 018°05'0 0.0
2016-Aug-20 22:32N 59°20' E 018°05'0 0.0
2016-Aug-20 21:32N 59°20' E 018°05'0 0.0
2016-Aug-20 20:32N 59°20' E 018°05'0 0.0
2016-Aug-20 19:32N 59°20' E 018°05'0 0.0
2016-Aug-20 18:29N 59°20' E 018°05'0 0.0
2016-Aug-20 17:32N 59°20' E 018°05'0 0.2
2016-Aug-20 16:33N 59°20' E 018°05'10 9.1
2016-Aug-20 15:31N 59°24' E 018°21'0 0.0
2016-Aug-20 07:24N 59°24' E 018°21'1011.4
2016-Aug-20 06:34N 59°19' E 018°05'0 0.4
2016-Aug-20 05:31N 59°20' E 018°05'0 0.0
2016-Aug-20 04:28N 59°20' E 018°05'0 0.0
2016-Aug-20 03:31N 59°20' E 018°05'0 0.0
2016-Aug-20 02:31N 59°20' E 018°05'0 0.0
2016-Aug-20 01:31N 59°20' E 018°05'0 0.0
2016-Aug-20 00:31N 59°20' E 018°05'0 0.0
2016-Aug-19 23:31N 59°20' E 018°05'0 0.0
2016-Aug-19 22:31N 59°20' E 018°05'0 0.0
2016-Aug-19 21:31N 59°20' E 018°05'0 0.0
2016-Aug-19 20:31N 59°20' E 018°05'10 9.4
2016-Aug-19 19:30N 59°24' E 018°21'1 0.2
2016-Aug-19 15:27N 59°23' E 018°21'910.0
2016-Aug-19 14:33N 59°19' E 018°05'0 0.3
2016-Aug-19 13:33N 59°20' E 018°05'10 9.1
2016-Aug-19 12:30N 59°24' E 018°21'4 0.8
2016-Aug-19 06:33N 59°21' E 018°14'5 5.1
2016-Aug-19 05:32N 59°20' E 018°04'0 0.0
2016-Aug-19 04:32N 59°20' E 018°04'0 0.0
2016-Aug-19 03:32N 59°20' E 018°04'0 0.0
2016-Aug-19 02:32N 59°20' E 018°04'0 0.0
2016-Aug-19 01:32N 59°20' E 018°04'0 0.0
2016-Aug-19 00:32N 59°20' E 018°04'0 0.0
2016-Aug-18 23:32N 59°20' E 018°04'0 0.0
2016-Aug-18 22:32N 59°20' E 018°04'0 0.0
2016-Aug-18 21:32N 59°20' E 018°04'0 0.0
2016-Aug-18 20:32N 59°20' E 018°04'0 0.0
2016-Aug-18 19:32N 59°20' E 018°04'0 0.0
2016-Aug-18 18:32N 59°20' E 018°04'0 0.0
2016-Aug-18 17:19N 59°20' E 018°04'6 0.8
2016-Aug-18 10:06N 59°22' E 018°16'611.1
2016-Aug-18 09:34N 59°19' E 018°05'0 0.4
2016-Aug-18 08:23N 59°20' E 018°05'3 4.2
2016-Aug-18 07:34N 59°20' E 018°11'1 0.0
2016-Aug-17 15:27N 59°20' E 018°12'4 4.5
2016-Aug-17 14:33N 59°20' E 018°05'3 2.7
2016-Aug-17 13:33N 59°19' E 018°10'3 0.4
2016-Aug-17 06:33N 59°20' E 018°05'0 0.2
2016-Aug-17 05:32N 59°20' E 018°05'0 0.0
2016-Aug-17 04:29N 59°20' E 018°05'0 0.0
2016-Aug-17 03:32N 59°20' E 018°05'0 0.0
2016-Aug-17 02:32N 59°20' E 018°05'0 0.0
2016-Aug-17 01:32N 59°20' E 018°05'0 0.0
2016-Aug-17 00:32N 59°20' E 018°05'0 0.0
2016-Aug-16 23:05N 59°20' E 018°05'0 0.0
2016-Aug-16 22:29N 59°20' E 018°05'0 0.0
2016-Aug-16 21:32N 59°20' E 018°05'0 0.0
2016-Aug-16 20:21N 59°20' E 018°05'0 0.1
2016-Aug-16 14:33N 59°19' E 018°05'0 0.4
2016-Aug-16 13:29N 59°20' E 018°04'0 0.0
2016-Aug-16 10:32N 59°20' E 018°04'0 0.0
2016-Aug-16 09:32N 59°20' E 018°04'0 0.0
2016-Aug-16 08:32N 59°20' E 018°04'7 0.4
2016-Aug-15 14:13N 59°22' E 018°17'710.6
2016-Aug-15 13:33N 59°19' E 018°05'2 2.1
2016-Aug-15 12:30N 59°19' E 018°09'2 0.5
2016-Aug-15 08:06N 59°20' E 018°12'4 2.4
2016-Aug-15 06:25N 59°20' E 018°05'1 0.1
2016-Aug-14 19:33N 59°19' E 018°07'  
Track history (hours):
 
Tides and Currents Weather Stations Pressure Air Temp Water Temp Dewpoint Dewpoint Depression Visibility Wind Speed Wind Dir Waves Ship Positions

Varmdo

Last reported at 2016-Aug-24 18:31 UTC. Time now 2016-Aug-24 19:43 UTC.
Position N 59°20' E 018°05'.

Length 38 m; draft 2.5 m.

Type: Passenger vessel. MMSI: 265520390.

Date/timePositionNaut miles runAvg speedWind from/ knotsBaromVisibWave heightAir tempDewpointWater temp
2016-Aug-24 18:31N 59°20' E 018°05'0 0.0
2016-Aug-24 17:31N 59°20' E 018°05'0 0.0
2016-Aug-24 16:31N 59°20' E 018°05'0 0.0
2016-Aug-24 15:31N 59°20' E 018°05'0 0.0
2016-Aug-24 14:31N 59°20' E 018°05'0 0.0
2016-Aug-24 13:28N 59°20' E 018°05'0 0.0
2016-Aug-24 12:31N 59°20' E 018°05'0 0.0
2016-Aug-24 11:28N 59°20' E 018°05'0 0.0
2016-Aug-24 10:31N 59°20' E 018°05'0 0.0
2016-Aug-24 09:31N 59°20' E 018°05'0 0.0
2016-Aug-24 08:31N 59°20' E 018°05'0 0.0
2016-Aug-24 07:31N 59°20' E 018°05'0 0.0
2016-Aug-24 06:31N 59°20' E 018°05'0 0.0
2016-Aug-24 04:31N 59°20' E 018°05'0 0.0
2016-Aug-24 03:31N 59°20' E 018°05'0 0.0
2016-Aug-24 02:31N 59°20' E 018°05'0 0.0
2016-Aug-24 01:31N 59°20' E 018°05'0 0.0
2016-Aug-24 00:31N 59°20' E 018°05'0 0.0
2016-Aug-23 23:28N 59°20' E 018°05'0 0.0
2016-Aug-23 22:31N 59°20' E 018°05'0 0.0
2016-Aug-23 21:31N 59°20' E 018°05'0 0.0
2016-Aug-23 20:31N 59°20' E 018°05'0 0.0
2016-Aug-23 19:31N 59°20' E 018°05'0 0.0
2016-Aug-23 18:28N 59°20' E 018°05'0 0.0
2016-Aug-23 17:31N 59°20' E 018°05'0 0.0
2016-Aug-23 16:28N 59°20' E 018°05'0 0.0
2016-Aug-23 15:31N 59°20' E 018°05'0 0.0
2016-Aug-23 14:28N 59°20' E 018°05'0 0.0
2016-Aug-23 13:31N 59°20' E 018°05'0 0.0
2016-Aug-23 12:28N 59°20' E 018°05'0 0.0
2016-Aug-23 11:31N 59°20' E 018°05'0 0.0
2016-Aug-23 10:31N 59°20' E 018°05'0 0.0
2016-Aug-23 09:31N 59°20' E 018°05'0 0.2
2016-Aug-23 08:33N 59°20' E 018°05'5 5.3
2016-Aug-23 07:34N 59°21' E 018°14'22 6.9
2016-Aug-23 04:23N 59°27' E 018°56'6 0.3
2016-Aug-22 09:18N 59°23' E 018°46'13 0.9
2016-Aug-21 18:33N 59°23' E 018°21'9 8.9
2016-Aug-21 17:33N 59°20' E 018°05'10 9.0
2016-Aug-21 16:29N 59°24' E 018°21'0 0.0
2016-Aug-21 10:29N 59°24' E 018°21'1010.4
2016-Aug-21 09:34N 59°19' E 018°05'0 0.4
2016-Aug-21 08:32N 59°20' E 018°05'0 0.0
2016-Aug-21 07:32N 59°20' E 018°05'0 0.0
2016-Aug-21 06:26N 59°20' E 018°05'0 0.0
2016-Aug-21 05:32N 59°20' E 018°05'0 0.0
2016-Aug-21 04:32N 59°20' E 018°05'0 0.0
2016-Aug-21 03:32N 59°20' E 018°05'0 0.0
2016-Aug-21 02:32N 59°20' E 018°05'0 0.0
2016-Aug-21 01:32N 59°20' E 018°05'0 0.0
2016-Aug-21 00:32N 59°20' E 018°05'0 0.0
2016-Aug-20 23:32N 59°20' E 018°05'0 0.0
2016-Aug-20 22:32N 59°20' E 018°05'0 0.0
2016-Aug-20 21:32N 59°20' E 018°05'0 0.0
2016-Aug-20 20:32N 59°20' E 018°05'0 0.0
2016-Aug-20 19:32N 59°20' E 018°05'0 0.0
2016-Aug-20 18:29N 59°20' E 018°05'0 0.0
2016-Aug-20 17:32N 59°20' E 018°05'0 0.2
2016-Aug-20 16:33N 59°20' E 018°05'10 9.1
2016-Aug-20 15:31N 59°24' E 018°21'0 0.0
2016-Aug-20 07:24N 59°24' E 018°21'1011.4
2016-Aug-20 06:34N 59°19' E 018°05'0 0.4
2016-Aug-20 05:31N 59°20' E 018°05'0 0.0
2016-Aug-20 04:28N 59°20' E 018°05'0 0.0
2016-Aug-20 03:31N 59°20' E 018°05'0 0.0
2016-Aug-20 02:31N 59°20' E 018°05'0 0.0
2016-Aug-20 01:31N 59°20' E 018°05'0 0.0
2016-Aug-20 00:31N 59°20' E 018°05'0 0.0
2016-Aug-19 23:31N 59°20' E 018°05'0 0.0
2016-Aug-19 22:31N 59°20' E 018°05'0 0.0
2016-Aug-19 21:31N 59°20' E 018°05'0 0.0
2016-Aug-19 20:31N 59°20' E 018°05'10 9.4
2016-Aug-19 19:30N 59°24' E 018°21'1 0.2
2016-Aug-19 15:27N 59°23' E 018°21'910.0
2016-Aug-19 14:33N 59°19' E 018°05'0 0.3
2016-Aug-19 13:33N 59°20' E 018°05'10 9.1
2016-Aug-19 12:30N 59°24' E 018°21'4 0.8
2016-Aug-19 06:33N 59°21' E 018°14'5 5.1
2016-Aug-19 05:32N 59°20' E 018°04'0 0.0
2016-Aug-19 04:32N 59°20' E 018°04'0 0.0
2016-Aug-19 03:32N 59°20' E 018°04'0 0.0
2016-Aug-19 02:32N 59°20' E 018°04'0 0.0
2016-Aug-19 01:32N 59°20' E 018°04'0 0.0
2016-Aug-19 00:32N 59°20' E 018°04'0 0.0
2016-Aug-18 23:32N 59°20' E 018°04'0 0.0
2016-Aug-18 22:32N 59°20' E 018°04'0 0.0
2016-Aug-18 21:32N 59°20' E 018°04'0 0.0
2016-Aug-18 20:32N 59°20' E 018°04'0 0.0
2016-Aug-18 19:32N 59°20' E 018°04'0 0.0
2016-Aug-18 18:32N 59°20' E 018°04'0 0.0
2016-Aug-18 17:19N 59°20' E 018°04'6 0.8
2016-Aug-18 10:06N 59°22' E 018°16'611.1
2016-Aug-18 09:34N 59°19' E 018°05'0 0.4
2016-Aug-18 08:23N 59°20' E 018°05'3 4.2
2016-Aug-18 07:34N 59°20' E 018°11'1 0.0
2016-Aug-17 15:27N 59°20' E 018°12'4 4.5
2016-Aug-17 14:33N 59°20' E 018°05'3 2.7
2016-Aug-17 13:33N 59°19' E 018°10'3 0.4
2016-Aug-17 06:33N 59°20' E 018°05'0 0.2
2016-Aug-17 05:32N 59°20' E 018°05'0 0.0
2016-Aug-17 04:29N 59°20' E 018°05'0 0.0
2016-Aug-17 03:32N 59°20' E 018°05'0 0.0
2016-Aug-17 02:32N 59°20' E 018°05'0 0.0
2016-Aug-17 01:32N 59°20' E 018°05'0 0.0
2016-Aug-17 00:32N 59°20' E 018°05'0 0.0
2016-Aug-16 23:05N 59°20' E 018°05'0 0.0
2016-Aug-16 22:29N 59°20' E 018°05'0 0.0
2016-Aug-16 21:32N 59°20' E 018°05'0 0.0
2016-Aug-16 20:21N 59°20' E 018°05'0 0.1
2016-Aug-16 14:33N 59°19' E 018°05'0 0.4
2016-Aug-16 13:29N 59°20' E 018°04'0 0.0
2016-Aug-16 10:32N 59°20' E 018°04'0 0.0
2016-Aug-16 09:32N 59°20' E 018°04'0 0.0
2016-Aug-16 08:32N 59°20' E 018°04'7 0.4
2016-Aug-15 14:13N 59°22' E 018°17'710.6
2016-Aug-15 13:33N 59°19' E 018°05'2 2.1
2016-Aug-15 12:30N 59°19' E 018°09'2 0.5
2016-Aug-15 08:06N 59°20' E 018°12'4 2.4
2016-Aug-15 06:25N 59°20' E 018°05'1 0.1
2016-Aug-14 19:33N 59°19' E 018°07'  

Dump ship's entire track history